Palau, PW

81°F / 27°C
Mostly Cloudy
Heat Index: 91°F / 33°C
Humidity: 100%
Dew Point: 81°F / 27°C
Wind: NE at 6 mph / 9 km/h
Pressure: 29.74 in / 1007 hPa (Falling)
Visibility: 10.0 miles / 16.1 kilometers
Clouds: (FEW) : 1400 ft / 426 m
Mostly Cloudy (BKN) : 7500 ft / 2286 m
Yesterday's Maximum: 87°F / 31°C
Yesterday's Minimum: 80°F / 27°C approx.
Yesterday's Cooling Degree Days: 19 approx.
UV: 0 out of 16
Sunrise:5:53 AM +09
Sunset:6:23 PM +09
Moon Rise:1:06 PM +09
Moon Set:12:31 AM +09
Moon Phase First Quarter
Marine Forecast & Tides
NOAA Weather Radio
No local feed.
METAR PGUM 201554Z 04005KT 10SM FEW014 BKN075 27/27 A2976 RMK AO2 RAB43E52 SLP069 P0000 T02720272
As of: 1:54 AM ChST on July 21, 2018
Observed at: Guam Agana, GU

View Station's History

Current Radar


Region Default Local
No Yes
No Yes

View Full Screen WunderMap

Forecast

Today
tstorms
82° | 77°F
28° | 25°C
Sunday
tstorms
84° | 77°F
29° | 25°C
Monday
tstorms
84° | 78°F
29° | 26°C
Today is forecast to be
Cooler than yesterday.
No Yes

Scientific Forecaster Discussion

Warnings & Notices

There are no active warnings for this location at this time.

View Palau Advisories

Features

Weather Apps

WunderRadio

Weather Underground Apps
Check out our wide variety of mobile and setup applications.

Weather Underground Applications

Top of Page

© Copyright 2018
The Weather Company, LLC